Time;durP1;ratioP1;P1;durP2;ratioP2;P2;SDS_P1;SDS_P2;PMS_P1;PMS_P2;Temp;Humidity;BMP_temperature;BMP_pressure;BME280_temperature;BME280_humidity;BME280_pressure;Samples;Min_cycle;Max_cycle;Signal;HPM_P1;HPM_P2
2022/09/14 00:02:06;;;;;;;2.63;2.17;;;;;;;23.11;57.20;101166.63;5089199;28;20019;-83
2022/09/14 00:04:31;;;;;;;3.20;1.90;;;;;;;23.07;57.42;101154.16;5089191;28;20074;-83
2022/09/14 00:06:57;;;;;;;;;;;;;;;23.14;57.47;101171.09;5077780;28;20028;-83
2022/09/14 00:09:23;;;;;;;2.22;2.03;;;;;;;22.96;57.46;101134.47;5082949;28;20292;-83
2022/09/14 00:11:50;;;;;;;1.80;1.70;;;;;;;23.08;57.57;101163.91;5066517;28;20478;-84
2022/09/14 00:14:17;;;;;;;2.30;1.90;;;;;;;23.10;57.06;101169.28;5093965;28;20033;-83
2022/09/14 00:16:43;;;;;;;2.17;1.65;;;;;;;23.07;57.03;101159.47;5083841;28;20060;-83
2022/09/14 00:19:34;;;;;;;1.98;1.77;;;;;;;23.09;57.26;101160.41;5078036;28;20107;-83
2022/09/14 00:22:00;;;;;;;1.90;1.80;;;;;;;23.10;57.36;101167.50;5095130;28;20089;-83
2022/09/14 00:24:29;;;;;;;2.13;1.90;;;;;;;23.01;57.45;101163.84;5071369;28;20461;-83
2022/09/14 00:26:55;;;;;;;4.18;1.77;;;;;;;22.84;57.05;101131.69;5085774;28;20020;-84
2022/09/14 00:29:22;;;;;;;2.20;1.80;;;;;;;23.02;57.03;101166.53;5079516;28;20516;-85
2022/09/14 00:31:48;;;;;;;2.08;1.88;;;;;;;23.06;57.11;101176.34;5056363;28;20021;-85
2022/09/14 00:34:15;;;;;;;2.25;1.88;;;;;;;22.91;57.12;101157.53;5080690;28;20405;-85
2022/09/14 00:36:43;;;;;;;2.22;1.90;;;;;;;23.01;57.09;101178.06;5079094;28;20077;-84
2022/09/14 00:39:10;;;;;;;2.22;1.90;;;;;;;23.04;57.06;101174.53;5077087;28;20090;-85
2022/09/14 00:41:37;;;;;;;1.88;1.77;;;;;;;23.03;57.29;101172.75;5095324;28;20019;-84
2022/09/14 00:44:09;;;;;;;3.50;1.80;;;;;;;23.03;57.16;101172.75;5093154;28;20052;-84
2022/09/14 00:46:40;;;;;;;2.10;1.90;;;;;;;22.96;57.60;101167.34;5079618;28;20024;-83
2022/09/14 00:49:26;;;;;;;2.40;1.90;;;;;;;22.86;57.23;101152.16;5067894;28;20413;-84
2022/09/14 00:52:08;;;;;;;1.65;1.55;;;;;;;23.00;57.27;101176.22;5075684;28;20036;-84
2022/09/14 00:54:39;;;;;;;2.00;1.75;;;;;;;23.00;57.04;101170.91;5073824;28;20032;-84
2022/09/14 00:57:05;;;;;;;1.83;1.73;;;;;;;22.97;57.21;101173.56;5089049;28;20099;-84
2022/09/14 00:59:35;;;;;;;1.77;1.67;;;;;;;22.97;57.28;101178.88;5077639;28;20420;-84
2022/09/14 01:02:00;;;;;;;1.85;1.75;;;;;;;22.90;57.11;101169.03;5061162;28;20493;-84
2022/09/14 01:04:26;;;;;;;2.13;1.90;;;;;;;22.95;57.31;101186.84;5057938;28;20034;-85
2022/09/14 01:07:18;;;;;;;2.42;1.90;;;;;;;22.96;57.28;101187.75;5089638;28;20036;-85
2022/09/14 01:10:00;;;;;;;1.80;1.70;;;;;;;22.98;57.30;101183.31;5051581;28;20048;-85
2022/09/14 01:12:40;;;;;;;1.70;1.60;;;;;;;22.96;56.94;101190.41;5069926;28;20123;-83
2022/09/14 01:15:16;;;;;;;2.10;1.60;;;;;;;22.94;57.32;101189.50;5075077;28;20035;-83
2022/09/14 01:17:50;;;;;;;2.90;2.00;;;;;;;22.92;57.31;101185.91;5086501;28;20036;-84
2022/09/14 01:20:35;;;;;;;2.53;1.80;;;;;;;22.83;57.34;101169.88;5079231;28;20153;-84
2022/09/14 01:23:10;;;;;;;2.35;1.80;;;;;;;22.82;56.94;101171.63;5082027;28;20024;-84
2022/09/14 01:25:44;;;;;;;2.00;1.80;;;;;;;22.92;57.08;101189.50;5082370;28;20024;-84
2022/09/14 01:28:16;;;;;;;1.83;1.70;;;;;;;22.72;56.96;101160.00;5091917;28;20020;-83
2022/09/14 01:30:43;;;;;;;1.77;1.67;;;;;;;22.68;57.13;101149.28;5072915;28;20477;-83
2022/09/14 01:33:11;;;;;;;1.83;1.60;;;;;;;22.91;56.88;101184.16;5065328;28;20480;-83
2022/09/14 01:35:51;;;;;;;2.20;1.92;;;;;;;22.83;57.28;101177.84;5080793;28;20119;-84
2022/09/14 01:38:25;;;;;;;2.55;1.90;;;;;;;22.82;56.95;101170.72;5079201;28;20050;-86
2022/09/14 01:40:51;;;;;;;1.85;1.65;;;;;;;22.84;57.03;101180.53;5098245;28;20041;-84
2022/09/14 01:44:04;;;;;;;3.25;1.90;;;;;;;22.89;57.20;101180.56;5094032;28;20031;-85
2022/09/14 01:46:40;;;;;;;2.00;1.70;;;;;;;22.79;57.15;101174.25;4994783;28;20060;-84
2022/09/14 01:49:32;;;;;;;3.28;1.85;;;;;;;22.75;57.17;101164.44;5071697;28;20043;-85
2022/09/14 01:52:03;;;;;;;2.25;1.90;;;;;;;22.83;57.51;101192.06;5088038;28;20032;-85
2022/09/14 01:54:36;;;;;;;1.80;1.70;;;;;;;22.77;57.34;101179.59;5094760;28;20507;-85
2022/09/14 01:57:43;;;;;;;1.80;1.70;;;;;;;22.62;57.08;101166.09;5095267;28;20034;-85
2022/09/14 02:00:11;;;;;;;2.30;1.70;;;;;;;22.84;57.00;101203.59;5008848;28;20053;-85
2022/09/14 02:02:41;;;;;;;1.92;1.73;;;;;;;22.71;57.16;101182.19;4991837;28;20068;-85
2022/09/14 02:05:17;;;;;;;1.67;1.50;;;;;;;22.64;57.14;101168.78;5034897;28;20035;-86
2022/09/14 02:07:43;;;;;;;2.38;1.83;;;;;;;22.82;56.92;101202.69;5087929;28;20042;-85
2022/09/14 02:10:11;;;;;;;1.65;1.55;;;;;;;22.79;56.81;101205.31;5100754;28;20493;-85
2022/09/14 02:12:36;;;;;;;1.92;1.58;;;;;;;22.79;56.79;101195.56;5085121;28;20031;-85
2022/09/14 02:15:04;;;;;;;1.95;1.80;;;;;;;22.66;56.88;101180.34;5111134;28;20027;-84
2022/09/14 02:17:30;;;;;;;2.53;1.58;;;;;;;22.61;57.01;101172.31;5084252;28;20032;-86
2022/09/14 02:19:58;;;;;;;2.42;1.90;;;;;;;22.78;56.56;101201.78;5095683;28;20030;-86
2022/09/14 02:22:25;;;;;;;1.85;1.75;;;;;;;22.79;56.62;101195.56;5074650;28;20062;-85
2022/09/14 02:24:51;;;;;;;1.80;1.70;;;;;;;22.70;57.16;101182.16;5093232;28;20059;-85
2022/09/14 02:27:17;;;;;;;2.63;1.67;;;;;;;22.76;56.93;101195.53;5088729;28;20055;-86
2022/09/14 02:29:43;;;;;;;1.77;1.58;;;;;;;22.55;57.20;101166.91;5111803;28;20549;-85
2022/09/14 02:32:20;;;;;;;2.35;1.90;;;;;;;22.61;57.38;101188.28;5084415;28;20485;-84
2022/09/14 02:35:10;;;;;;;1.80;1.70;;;;;;;22.73;56.74;101208.78;5111380;28;20038;-85
2022/09/14 02:37:43;;;;;;;2.90;2.15;;;;;;;22.72;56.58;101201.69;5091569;28;20041;-84
2022/09/14 02:40:08;;;;;;;1.70;1.60;;;;;;;22.71;56.71;101207.88;5077886;28;20038;-85
2022/09/14 02:42:46;;;;;;;1.88;1.73;;;;;;;22.72;56.96;101201.69;5083979;28;20102;-86
2022/09/14 02:45:44;;;;;;;2.25;1.80;;;;;;;22.70;56.58;101204.34;5090892;28;20028;-85
2022/09/14 02:48:47;;;;;;;1.92;1.73;;;;;;;22.52;56.81;101175.75;5075119;28;20479;-86
2022/09/14 02:51:54;;;;;;;2.03;1.83;;;;;;;22.67;56.94;101206.97;5044097;28;20096;-85
2022/09/14 02:54:27;;;;;;;1.85;1.75;;;;;;;22.57;56.84;101186.44;5020559;28;20037;-85
2022/09/14 02:56:52;;;;;;;2.22;1.77;;;;;;;22.65;57.13;101202.50;5049385;28;20032;-85
2022/09/14 02:59:18;;;;;;;2.35;1.80;;;;;;;22.56;56.56;101182.00;5094662;28;20036;-86
2022/09/14 03:01:44;;;;;;;1.92;1.83;;;;;;;22.57;57.05;101194.44;5072359;28;20060;-86
2022/09/14 03:04:09;;;;;;;;;;;;;;;22.66;56.84;101198.97;5067708;28;20025;-86
2022/09/14 03:06:35;;;;;;;1.85;1.70;;;;;;;22.61;56.84;101195.38;5090941;28;20316;-84
2022/09/14 03:09:00;;;;;;;;;;;;;;;22.62;56.81;101205.13;5100160;28;20032;-85
2022/09/14 03:11:26;;;;;;;1.90;1.80;;;;;;;22.61;56.97;101206.03;5062786;28;19978;-84
2022/09/14 03:13:51;;;;;;;2.03;1.73;;;;;;;22.43;56.53;101180.06;5056715;28;20040;-85
2022/09/14 03:16:17;;;;;;;1.85;1.75;;;;;;;22.19;56.75;101140.72;5073014;28;20116;-86
2022/09/14 03:18:43;;;;;;;2.03;1.70;;;;;;;22.25;56.57;101146.16;5059786;28;20029;-85
2022/09/14 03:21:11;;;;;;;3.60;1.98;;;;;;;22.59;56.60;101203.34;5069178;28;20025;-86
2022/09/14 03:23:40;;;;;;;1.80;1.70;;;;;;;22.54;56.61;101195.31;5070440;28;20034;-86
2022/09/14 03:26:14;;;;;;;2.00;1.90;;;;;;;22.59;56.59;101208.66;5084132;28;20130;-86
2022/09/14 03:28:40;;;;;;;1.98;1.80;;;;;;;22.34;56.79;101167.56;5072057;28;20017;-86
2022/09/14 03:31:07;;;;;;;1.90;1.70;;;;;;;22.55;57.10;101212.16;5072134;28;20028;-86
2022/09/14 03:33:33;;;;;;;3.13;1.60;;;;;;;22.55;56.69;101207.72;5067103;28;20054;-85
2022/09/14 03:35:59;;;;;;;2.15;1.95;;;;;;;22.55;56.72;101207.72;5080921;28;20489;-84
2022/09/14 03:38:28;;;;;;;;;;;;;;;22.60;56.53;101209.53;5083519;28;20386;-86
2022/09/14 03:40:55;;;;;;;2.10;1.88;;;;;;;22.51;56.41;101197.03;5087599;28;19912;-85
2022/09/14 03:43:21;;;;;;;2.10;1.77;;;;;;;22.52;56.96;101209.44;5072496;28;20115;-85
2022/09/14 03:45:46;;;;;;;2.03;1.83;;;;;;;22.44;56.28;101200.50;5079374;28;20114;-85
2022/09/14 03:48:14;;;;;;;2.33;2.00;;;;;;;22.47;56.71;101206.72;5081007;28;20028;-85
2022/09/14 03:50:40;;;;;;;2.58;1.90;;;;;;;22.53;56.73;101217.44;5088797;28;20032;-86
2022/09/14 03:53:06;;;;;;;1.67;1.58;;;;;;;22.37;56.45;101194.19;5079311;28;20036;-86
2022/09/14 03:55:31;;;;;;;1.88;1.77;;;;;;;22.33;56.41;101193.28;5086633;28;20039;-85
2022/09/14 03:57:57;;;;;;;2.20;2.03;;;;;;;22.31;56.63;101189.69;5084546;28;20016;-85
2022/09/14 04:00:22;;;;;;;;;;;;;;;22.52;56.39;101213.03;5065269;28;20405;-86
2022/09/14 04:02:48;;;;;;;4.53;1.95;;;;;;;22.19;56.35;101173.53;5081482;28;19919;-83
2022/09/14 04:05:14;;;;;;;1.90;1.80;;;;;;;22.37;56.35;101207.50;5086072;28;20020;-82
2022/09/14 04:07:40;;;;;;;2.10;1.90;;;;;;;22.43;56.95;101217.31;5090368;28;20035;-83
2022/09/14 04:10:06;;;;;;;3.83;1.88;;;;;;;22.45;56.66;101224.44;5073861;28;20552;-83
2022/09/14 04:12:37;;;;;;;;;;;;;;;22.47;56.41;101232.47;5090156;28;20111;-83
2022/09/14 04:15:05;;;;;;;2.85;2.17;;;;;;;22.42;56.58;101229.75;5088006;28;19919;-83
2022/09/14 04:17:31;;;;;;;2.78;1.92;;;;;;;22.41;56.71;101230.59;5097520;28;20043;-84
2022/09/14 04:19:56;;;;;;;3.17;2.42;;;;;;;22.32;56.26;101220.75;5078559;28;20421;-83
2022/09/14 04:22:22;;;;;;;;;;;;;;;22.42;56.70;101244.84;5069499;28;20066;-83
2022/09/14 04:24:47;;;;;;;4.07;2.15;;;;;;;22.38;56.68;101235.91;5086895;28;19919;-82
2022/09/14 04:27:13;;;;;;;2.38;2.13;;;;;;;22.37;56.66;101244.75;5073332;28;20506;-84
2022/09/14 04:29:38;;;;;;;2.40;2.20;;;;;;;22.32;56.42;101227.84;5086254;28;20028;-84
2022/09/14 04:32:04;;;;;;;2.30;2.10;;;;;;;22.26;56.15;101217.09;5061154;28;20105;-84
2022/09/14 04:34:30;;;;;;;3.47;2.20;;;;;;;22.33;56.10;101243.84;5086697;28;20039;-84
2022/09/14 04:36:55;;;;;;;3.95;2.42;;;;;;;22.23;56.31;101235.72;5080446;28;20040;-83
2022/09/14 04:39:21;;;;;;;2.63;2.40;;;;;;;22.31;56.38;101244.69;5089430;28;20038;-84
2022/09/14 04:41:47;;;;;;;3.40;2.38;;;;;;;22.15;56.13;101220.47;5088850;28;20028;-85
2022/09/14 04:44:12;;;;;;;;;;;;;;;22.39;56.47;101255.41;5072645;28;20036;-84
2022/09/14 04:46:38;;;;;;;3.58;2.45;;;;;;;22.26;56.46;101241.06;5084067;28;20370;-84
2022/09/14 04:49:05;;;;;;;;;;;;;;;22.32;56.27;101255.34;5085496;28;20031;-84
2022/09/14 04:51:32;;;;;;;2.33;2.13;;;;;;;22.20;56.26;101232.94;5066611;28;20007;-84
2022/09/14 04:53:59;;;;;;;3.10;2.13;;;;;;;22.13;56.51;101229.31;5073609;28;20583;-83
2022/09/14 04:56:25;;;;;;;2.40;2.20;;;;;;;22.06;56.02;101212.38;5094758;28;20024;-84
2022/09/14 04:58:54;;;;;;;3.50;2.40;;;;;;;22.10;56.79;101232.84;5092676;28;20489;-84
2022/09/14 05:01:22;;;;;;;2.83;1.95;;;;;;;22.28;56.18;101255.28;5061505;28;20020;-84
2022/09/14 05:03:48;;;;;;;2.75;2.20;;;;;;;22.12;56.33;101236.41;5067236;28;20032;-80
2022/09/14 05:06:17;;;;;;;2.35;2.15;;;;;;;22.23;56.45;101252.56;5085339;28;20058;-81
2022/09/14 05:08:43;;;;;;;2.38;2.10;;;;;;;22.27;56.04;101259.72;5063258;28;20759;-80
2022/09/14 05:11:12;;;;;;;2.28;2.08;;;;;;;22.24;56.47;101267.63;5061644;28;20029;-82
2022/09/14 05:13:37;;;;;;;2.67;2.25;;;;;;;22.25;56.39;101268.56;5060279;28;20109;-81
2022/09/14 05:16:13;;;;;;;2.70;2.17;;;;;;;22.25;56.04;101269.44;5073150;28;20386;-81
2022/09/14 05:18:38;;;;;;;3.08;2.08;;;;;;;22.21;56.36;101262.25;5076861;28;20031;-82
2022/09/14 05:21:05;;;;;;;3.17;2.15;;;;;;;22.22;55.83;101257.81;5096331;28;20398;-81
2022/09/14 05:23:31;;;;;;;2.38;2.17;;;;;;;22.18;56.59;101262.19;5081711;28;20035;-81
2022/09/14 05:26:00;;;;;;;3.00;2.22;;;;;;;22.17;56.49;101263.97;5072892;28;20024;-80
2022/09/14 05:28:26;;;;;;;2.20;1.98;;;;;;;22.15;56.22;101268.38;5049997;28;20483;-83
2022/09/14 05:30:52;;;;;;;;;;;;;;;22.17;56.53;101271.06;5081753;28;20029;-82
2022/09/14 05:33:18;;;;;;;2.35;2.15;;;;;;;22.07;56.50;101251.41;5089029;28;19919;-80
2022/09/14 05:35:44;;;;;;;2.80;2.20;;;;;;;22.15;56.74;101264.81;5079998;28;20165;-80
2022/09/14 05:38:09;;;;;;;3.42;2.10;;;;;;;22.02;56.73;101255.78;5100203;27;20451;-81
2022/09/14 05:40:35;;;;;;;;;;;;;;;22.13;56.59;101263.91;5093968;27;20036;-81
2022/09/14 05:43:00;;;;;;;2.50;2.30;;;;;;;22.09;56.54;101264.72;5105368;27;19911;-82
2022/09/14 05:45:26;;;;;;;3.88;2.55;;;;;;;22.09;56.54;101267.38;5107817;27;20469;-81
2022/09/14 05:47:51;;;;;;;2.50;2.30;;;;;;;22.00;56.29;101248.66;5102007;27;20019;-81
2022/09/14 05:50:17;;;;;;;2.55;2.35;;;;;;;22.03;56.68;101254.00;5106575;27;20023;-82
2022/09/14 05:52:43;;;;;;;2.60;2.20;;;;;;;22.15;56.33;101272.78;5124610;27;20058;-80
2022/09/14 05:55:08;;;;;;;2.75;2.38;;;;;;;22.13;56.46;101270.09;5109878;27;20487;-82
2022/09/14 05:57:34;;;;;;;3.63;2.70;;;;;;;22.03;56.39;101257.53;5101672;28;20536;-81
2022/09/14 05:59:59;;;;;;;;;;;;;;;22.14;56.60;101282.56;5083707;28;20412;-81
2022/09/14 06:02:25;;;;;;;3.30;2.38;;;;;;;22.11;56.21;101268.31;5097059;28;19912;-82
2022/09/14 06:04:50;;;;;;;;;;;;;;;22.08;56.56;101277.13;5113990;27;20436;-82
2022/09/14 06:07:16;;;;;;;2.53;2.00;;;;;;;21.98;56.77;101274.31;5111355;27;19947;-82
2022/09/14 06:09:42;;;;;;;2.78;2.25;;;;;;;22.08;56.51;101290.44;5106129;27;20469;-83
2022/09/14 06:12:08;;;;;;;2.85;2.50;;;;;;;22.06;56.60;101292.19;5090593;27;20526;-82
2022/09/14 06:14:33;;;;;;;2.53;2.30;;;;;;;21.92;56.70;101273.34;5116404;27;20031;-79
2022/09/14 06:16:59;;;;;;;2.38;2.17;;;;;;;21.97;56.75;101284.06;5127917;27;20027;-84
2022/09/14 06:19:25;;;;;;;;;;;;;;;22.08;56.73;101295.75;5100515;28;20084;-82
2022/09/14 06:21:50;;;;;;;2.40;2.20;;;;;;;22.01;56.56;101277.91;5105378;27;19916;-81
2022/09/14 06:24:16;;;;;;;2.58;2.38;;;;;;;22.03;56.60;101277.94;5107343;27;20032;-82
2022/09/14 06:26:42;;;;;;;2.97;2.30;;;;;;;22.07;56.53;101295.72;5103626;27;20033;-82
2022/09/14 06:29:08;;;;;;;4.40;2.40;;;;;;;22.02;57.08;101295.66;5098035;27;20383;-81
2022/09/14 06:31:33;;;;;;;3.20;2.60;;;;;;;22.05;56.67;101294.81;5112620;27;20069;-82
2022/09/14 06:34:00;;;;;;;2.47;2.25;;;;;;;22.05;56.48;101300.13;5076871;27;20032;-81
2022/09/14 06:36:27;;;;;;;2.92;2.22;;;;;;;21.85;57.13;101274.13;5082402;28;20028;-80
2022/09/14 06:38:53;;;;;;;4.13;2.50;;;;;;;22.02;56.52;101295.66;5104586;28;20028;-81
2022/09/14 06:41:22;;;;;;;3.53;2.53;;;;;;;22.02;56.54;101300.09;5073248;28;20032;-80
2022/09/14 06:43:48;;;;;;;2.53;2.33;;;;;;;22.00;56.77;101308.03;5093541;28;20482;-81
2022/09/14 06:46:15;;;;;;;2.63;2.42;;;;;;;22.00;56.80;101309.81;5112268;27;20084;-81
2022/09/14 06:48:44;;;;;;;2.50;2.30;;;;;;;21.73;57.10;101257.97;5107800;27;20030;-83
2022/09/14 06:51:15;;;;;;;2.70;2.30;;;;;;;21.76;57.01;101260.69;5095836;28;20035;-82
2022/09/14 06:53:42;;;;;;;2.40;2.20;;;;;;;22.05;56.87;101308.09;5107740;28;20035;-83
2022/09/14 06:56:07;;;;;;;2.40;2.20;;;;;;;22.02;56.72;101306.28;5112668;27;20084;-81
2022/09/14 06:58:33;;;;;;;3.08;2.65;;;;;;;22.03;56.86;101312.50;5111266;28;20031;-82
2022/09/14 07:01:07;;;;;;;2.50;2.25;;;;;;;22.04;57.00;101311.66;5107196;27;20106;-80
2022/09/14 07:03:46;;;;;;;2.88;2.50;;;;;;;21.96;57.23;101306.19;5109889;28;20023;-84
2022/09/14 07:06:18;;;;;;;2.45;2.15;;;;;;;21.87;57.33;101287.44;5083152;28;20066;-83
2022/09/14 07:08:48;;;;;;;2.40;2.20;;;;;;;21.72;57.29;101261.50;5072556;28;20460;-85
2022/09/14 07:11:16;;;;;;;2.60;2.40;;;;;;;21.95;57.54;101309.75;5105147;28;20030;-84
2022/09/14 07:13:42;;;;;;;2.53;2.33;;;;;;;21.90;57.50;101296.34;5073699;28;20134;-84
2022/09/14 07:16:07;;;;;;;3.20;2.50;;;;;;;21.70;57.24;101257.94;5071997;28;20483;-83
2022/09/14 07:18:34;;;;;;;2.95;2.45;;;;;;;21.99;57.48;101302.69;5089076;28;20088;-85
2022/09/14 07:21:11;;;;;;;2.42;2.20;;;;;;;21.92;57.78;101305.25;5111550;28;20046;-84
2022/09/14 07:23:39;;;;;;;2.80;2.45;;;;;;;21.98;57.65;101307.13;5079340;28;20028;-84
2022/09/14 07:26:13;;;;;;;2.47;2.22;;;;;;;21.95;57.64;101309.75;5112471;28;20027;-82
2022/09/14 07:28:39;;;;;;;2.50;2.30;;;;;;;22.00;57.51;101302.72;5107256;27;20015;-83
2022/09/14 07:31:20;;;;;;;2.72;2.50;;;;;;;21.96;57.58;101296.44;5097486;27;20046;-82
2022/09/14 07:33:46;;;;;;;2.67;2.47;;;;;;;21.99;57.59;101300.03;5110265;27;20396;-83
2022/09/14 07:36:13;;;;;;;2.50;2.30;;;;;;;21.92;57.64;101281.31;5110213;27;20099;-83
2022/09/14 07:38:39;;;;;;;2.50;2.30;;;;;;;21.94;57.60;101290.22;5107996;27;20070;-83
2022/09/14 07:41:07;;;;;;;2.50;2.30;;;;;;;21.88;57.58;101284.78;5109060;27;20059;-83
2022/09/14 07:43:33;;;;;;;2.47;2.28;;;;;;;21.95;57.84;101300.00;5121015;27;20094;-84
2022/09/14 07:46:03;;;;;;;2.75;2.30;;;;;;;21.96;57.70;101307.09;5090101;28;20047;-83
2022/09/14 07:48:30;;;;;;;2.30;2.10;;;;;;;21.91;57.92;101292.84;5114262;27;20395;-85
2022/09/14 07:51:06;;;;;;;4.35;2.40;;;;;;;21.92;57.62;101283.97;5110394;27;20028;-85
2022/09/14 07:53:35;;;;;;;4.30;2.28;;;;;;;21.97;57.73;101294.72;5116731;27;20023;-84
2022/09/14 07:56:01;;;;;;;3.25;2.40;;;;;;;21.80;58.00;101275.81;5094040;27;20476;-86
2022/09/14 07:58:30;;;;;;;4.22;2.40;;;;;;;21.91;58.12;101292.84;5110947;27;20027;-84
2022/09/14 08:01:06;;;;;;;3.20;2.30;;;;;;;21.93;58.13;101298.19;5122845;27;20023;-83
2022/09/14 08:03:32;;;;;;;2.83;2.45;;;;;;;21.84;58.15;101279.41;5120310;27;20104;-83
2022/09/14 08:06:00;;;;;;;;;;;;;;;21.83;58.51;101291.81;5111251;27;20114;-83
2022/09/14 08:08:31;;;;;;;4.55;2.17;;;;;;;21.79;58.77;101282.00;5094001;27;19912;-83
2022/09/14 08:11:18;;;;;;;2.60;2.40;;;;;;;21.83;58.62;101293.59;5111848;27;20027;-82
2022/09/14 08:13:45;;;;;;;4.28;2.50;;;;;;;21.85;58.44;101298.06;5069350;28;20040;-81
2022/09/14 08:16:12;;;;;;;3.65;2.65;;;;;;;21.77;58.52;101282.84;5113939;27;20503;-81
2022/09/14 08:18:38;;;;;;;2.95;2.30;;;;;;;21.74;58.36;101273.06;5101633;27;20493;-81
2022/09/14 08:21:04;;;;;;;;;;;;;;;21.88;58.60;101294.53;5104999;28;20031;-82
2022/09/14 08:23:30;;;;;;;5.20;2.45;;;;;;;21.80;58.70;101291.78;5089813;28;19912;-80
2022/09/14 08:26:00;;;;;;;3.40;2.45;;;;;;;21.80;58.53;101290.84;5108136;27;20397;-81
2022/09/14 08:28:26;;;;;;;3.38;2.50;;;;;;;21.64;58.41;101258.72;5075405;28;20024;-81
2022/09/14 08:30:51;;;;;;;3.70;2.70;;;;;;;21.68;58.14;101265.00;5085915;28;20040;-82
2022/09/14 08:33:17;;;;;;;2.88;2.58;;;;;;;21.73;58.06;101257.97;5097978;28;20031;-82
2022/09/14 08:35:43;;;;;;;4.93;2.35;;;;;;;21.69;57.76;101270.31;5108219;28;20577;-82
2022/09/14 08:38:09;;;;;;;3.40;2.92;;;;;;;21.68;57.90;101262.34;5078485;28;20044;-83
2022/09/14 08:40:43;;;;;;;3.08;2.78;;;;;;;21.73;58.23;101261.50;5079147;28;20039;-82
2022/09/14 08:43:11;;;;;;;3.92;3.05;;;;;;;21.75;58.10;101275.72;5065560;28;20699;-83
2022/09/14 08:45:39;;;;;;;2.78;2.47;;;;;;;21.78;57.64;101263.34;5068419;28;20409;-83
2022/09/14 08:48:23;;;;;;;3.65;2.67;;;;;;;21.62;58.02;101233.88;5069847;28;20024;-83
2022/09/14 08:50:52;;;;;;;4.30;2.83;;;;;;;21.78;58.46;101263.34;5087477;28;20028;-82
2022/09/14 08:53:23;;;;;;;4.10;2.88;;;;;;;21.84;58.70;101256.38;5076328;28;20032;-84
2022/09/14 08:55:55;;;;;;;6.22;2.85;;;;;;;21.80;58.30;101253.63;5070733;28;20020;-83
2022/09/14 08:58:43;;;;;;;4.75;2.80;;;;;;;21.91;58.19;101260.03;5066321;28;20033;-84
2022/09/14 09:01:37;;;;;;;4.38;2.72;;;;;;;21.93;57.95;101247.66;5089837;28;20418;-83
2022/09/14 09:04:22;;;;;;;3.13;2.83;;;;;;;22.00;57.85;101256.63;5090409;28;20040;-84
2022/09/14 09:07:03;;;;;;;3.50;2.80;;;;;;;21.95;58.36;101253.91;5087633;28;20477;-83
2022/09/14 09:09:37;;;;;;;5.32;2.72;;;;;;;22.01;57.75;101258.38;5092931;28;20020;-83
2022/09/14 09:12:04;;;;;;;4.70;3.20;;;;;;;21.99;58.63;101257.47;5082891;28;20027;-84
2022/09/14 09:14:32;;;;;;;3.72;2.95;;;;;;;21.95;58.78;101243.25;5086018;28;20142;-84
2022/09/14 09:20:01;;;;;;;4.28;2.75;;;;;;;21.94;58.71;101239.69;5066221;28;20505;-83
2022/09/14 09:22:32;;;;;;;4.72;3.17;;;;;;;21.99;58.78;101254.81;5073948;28;20024;-83
2022/09/14 09:24:58;;;;;;;7.53;2.90;;;;;;;21.90;58.82;101215.69;5059028;28;20054;-82
2022/09/14 09:27:26;;;;;;;3.33;3.03;;;;;;;22.02;58.86;101242.47;5065070;28;20031;-82
2022/09/14 09:29:52;;;;;;;4.05;2.90;;;;;;;21.93;58.90;101224.63;5086634;28;20673;-83
2022/09/14 09:32:20;;;;;;;3.78;3.10;;;;;;;22.08;58.97;101245.22;5089571;28;20157;-82
2022/09/14 09:34:46;;;;;;;4.95;3.00;;;;;;;22.07;59.15;101245.19;5080410;28;20056;-82
2022/09/14 09:37:17;;;;;;;3.55;2.80;;;;;;;22.08;58.83;101250.53;5100045;28;20036;-81
2022/09/14 09:39:43;;;;;;;4.50;3.20;;;;;;;21.98;58.65;101234.44;5082307;28;20047;-82
2022/09/14 09:42:23;;;;;;;5.47;3.67;;;;;;;21.88;58.71;101228.94;5108891;28;20023;-81
2022/09/14 09:44:52;;;;;;;7.60;3.22;;;;;;;22.02;59.14;101244.25;5110647;28;20099;-83
2022/09/14 09:47:29;;;;;;;6.75;3.55;;;;;;;22.02;59.42;101237.16;5096442;28;20488;-83
2022/09/14 09:49:59;;;;;;;6.15;3.60;;;;;;;21.99;59.19;101230.88;5087871;28;20040;-83
2022/09/14 09:52:26;;;;;;;4.40;3.17;;;;;;;22.06;59.27;101238.97;5089662;28;20031;-83
2022/09/14 09:54:52;;;;;;;;;;;;;;;22.15;60.54;101230.25;5093283;28;20416;-83
2022/09/14 09:57:22;;;;;;;9.55;3.83;;;;;;;22.12;65.08;101222.22;5063755;28;19920;-82
2022/09/14 09:59:47;;;;;;;8.88;3.90;;;;;;;22.07;65.81;101210.63;5105208;28;20015;-82
2022/09/14 10:02:25;;;;;;;11.30;4.50;;;;;;;22.17;66.08;101221.41;5090684;28;20034;-82
2022/09/14 10:05:02;;;;;;;9.93;4.60;;;;;;;22.18;66.06;101214.31;5079902;28;20512;-81
2022/09/14 10:07:30;;;;;;;8.50;4.15;;;;;;;22.19;65.47;101212.56;5060775;28;20099;-82
2022/09/14 10:10:05;;;;;;;6.78;4.03;;;;;;;22.14;66.18;101202.75;5081153;28;20115;-83
2022/09/14 10:12:31;;;;;;;6.90;3.70;;;;;;;22.06;66.00;101191.09;5089096;28;20027;-83
2022/09/14 10:15:19;;;;;;;15.32;4.30;;;;;;;22.33;64.85;101206.59;5075582;28;20039;-83
2022/09/14 10:17:55;;;;;;;7.57;3.88;;;;;;;22.39;64.02;101212.84;5090979;28;20028;-81
2022/09/14 10:20:22;;;;;;;8.60;4.18;;;;;;;22.26;63.63;101212.66;5057427;28;20056;-80
2022/09/14 10:22:48;;;;;;;10.77;3.97;;;;;;;22.18;63.75;101211.63;5087736;28;20478;-82
2022/09/14 10:25:14;;;;;;;8.90;3.85;;;;;;;22.15;64.11;101215.16;5069156;28;20023;-81
2022/09/14 10:27:44;;;;;;;6.53;3.72;;;;;;;22.13;63.33;101214.25;5081995;28;20012;-81
2022/09/14 10:30:25;;;;;;;7.68;4.00;;;;;;;22.12;63.51;101211.59;5073896;28;20032;-81
2022/09/14 10:33:00;;;;;;;8.35;4.45;;;;;;;22.13;63.64;101205.38;5087380;28;20028;-80
2022/09/14 10:35:49;;;;;;;7.63;4.03;;;;;;;22.13;63.82;101211.59;5057794;28;20028;-80
2022/09/14 10:38:51;;;;;;;7.57;4.10;;;;;;;22.09;63.13;101204.44;4979679;28;20667;-81
2022/09/14 10:41:35;;;;;;;7.10;4.25;;;;;;;22.13;62.93;101202.72;5075755;28;20031;-81
2022/09/14 10:44:42;;;;;;;5.72;3.92;;;;;;;22.16;62.56;101203.66;5088437;28;20067;-80
2022/09/14 10:47:22;;;;;;;6.93;4.07;;;;;;;22.13;62.75;101206.25;5005475;28;20033;-81
2022/09/14 10:50:12;;;;;;;7.07;3.78;;;;;;;22.13;61.84;101197.41;5005813;28;20121;-81
2022/09/14 10:52:54;;;;;;;4.55;3.90;;;;;;;22.08;61.89;101194.69;5038852;28;20071;-81
2022/09/14 10:55:30;;;;;;;6.90;4.20;;;;;;;22.05;62.16;101178.66;5062137;28;20058;-80
2022/09/14 10:58:26;;;;;;;8.45;4.13;;;;;;;22.15;61.98;101201.84;5076755;28;20402;-80
2022/09/14 11:01:10;;;;;;;6.25;4.30;;;;;;;22.13;61.53;101192.06;5084137;28;20036;-81
2022/09/14 11:03:42;;;;;;;4.68;4.03;;;;;;;22.15;61.96;101196.53;5076960;28;20513;-81
2022/09/14 11:06:25;;;;;;;5.45;3.78;;;;;;;22.04;61.60;101179.56;5078349;28;20117;-82
2022/09/14 11:09:15;;;;;;;9.23;4.45;;;;;;;22.16;61.80;101187.69;5066864;28;20028;-82
2022/09/14 11:12:01;;;;;;;5.82;3.90;;;;;;;21.84;62.26;101127.84;5058656;28;20043;-83
2022/09/14 11:14:30;;;;;;;9.65;3.90;;;;;;;22.10;62.26;101157.47;5072557;28;20169;-83
2022/09/14 11:16:58;;;;;;;6.53;4.25;;;;;;;22.04;61.99;101147.63;5087993;28;20024;-83
2022/09/14 11:19:37;;;;;;;5.53;3.85;;;;;;;22.19;62.46;101173.53;5079093;28;20042;-83
2022/09/14 11:22:14;;;;;;;7.63;4.15;;;;;;;21.88;61.63;101109.28;5064968;28;20020;-82
2022/09/14 11:24:42;;;;;;;4.75;4.00;;;;;;;22.19;61.41;101165.56;5072222;28;20111;-82
2022/09/14 11:27:28;;;;;;;5.22;3.95;;;;;;;22.22;60.71;101173.56;5061707;28;20027;-83
2022/09/14 11:30:02;;;;;;;4.28;3.72;;;;;;;21.99;61.35;101127.16;5060209;28;20052;-82
2022/09/14 11:32:39;;;;;;;6.32;3.95;;;;;;;22.27;61.12;101165.69;5082886;28;20040;-83
2022/09/14 11:35:16;;;;;;;5.85;4.07;;;;;;;22.30;61.08;101163.06;5083759;28;20028;-83
2022/09/14 11:38:03;;;;;;;5.40;4.10;;;;;;;22.33;60.22;101161.34;5083587;28;20048;-82
2022/09/14 11:40:33;;;;;;;6.20;3.90;;;;;;;22.31;59.83;101159.53;5087901;28;20085;-81
2022/09/14 11:43:02;;;;;;;5.15;4.20;;;;;;;22.30;59.95;101155.97;5090487;28;20024;-81
2022/09/14 11:45:33;;;;;;;7.07;4.30;;;;;;;22.26;60.33;101153.25;5082033;28;20028;-82
2022/09/14 11:48:11;;;;;;;7.47;4.50;;;;;;;22.30;61.21;101163.06;5073443;28;20016;-81
2022/09/14 11:50:37;;;;;;;7.13;4.30;;;;;;;22.35;61.18;101158.69;5089391;28;20443;-81